sensor_id;sensor_type;location;lat;lon;timestamp;P1;durP1;ratioP1;P2;durP2;ratioP2
1935;SDS011;969;49.892;10.896;2022-09-01T00:04:04;3.03;;;2.20;;
1935;SDS011;969;49.892;10.896;2022-09-01T00:06:55;2.33;;;2.13;;
1935;SDS011;969;49.892;10.896;2022-09-01T00:12:45;3.03;;;2.73;;
1935;SDS011;969;49.892;10.896;2022-09-01T00:15:14;1.90;;;1.70;;
1935;SDS011;969;49.892;10.896;2022-09-01T00:20:55;2.50;;;2.30;;
1935;SDS011;969;49.892;10.896;2022-09-01T00:23:36;2.73;;;2.10;;
1935;SDS011;969;49.892;10.896;2022-09-01T00:26:15;2.97;;;1.97;;
1935;SDS011;969;49.892;10.896;2022-09-01T00:32:49;2.67;;;2.00;;
1935;SDS011;969;49.892;10.896;2022-09-01T00:48:31;4.30;;;1.90;;
1935;SDS011;969;49.892;10.896;2022-09-01T00:51:12;2.17;;;1.90;;
1935;SDS011;969;49.892;10.896;2022-09-01T00:53:52;2.27;;;2.00;;
1935;SDS011;969;49.892;10.896;2022-09-01T00:56:33;1.70;;;1.60;;
1935;SDS011;969;49.892;10.896;2022-09-01T00:59:16;2.10;;;1.90;;
1935;SDS011;969;49.892;10.896;2022-09-01T01:01:47;2.30;;;2.10;;
1935;SDS011;969;49.892;10.896;2022-09-01T01:04:20;2.30;;;2.10;;
1935;SDS011;969;49.892;10.896;2022-09-01T01:06:58;3.07;;;2.00;;
1935;SDS011;969;49.892;10.896;2022-09-01T01:09:45;2.40;;;2.20;;
1935;SDS011;969;49.892;10.896;2022-09-01T01:12:30;2.57;;;1.80;;
1935;SDS011;969;49.892;10.896;2022-09-01T01:15:02;2.20;;;1.80;;
1935;SDS011;969;49.892;10.896;2022-09-01T01:17:45;1.80;;;1.70;;
1935;SDS011;969;49.892;10.896;2022-09-01T01:20:57;1.80;;;1.70;;
1935;SDS011;969;49.892;10.896;2022-09-01T01:24:06;2.30;;;2.10;;
1935;SDS011;969;49.892;10.896;2022-09-01T01:37:16;2.40;;;2.20;;
1935;SDS011;969;49.892;10.896;2022-09-01T01:39:51;3.10;;;2.07;;
1935;SDS011;969;49.892;10.896;2022-09-01T01:42:22;3.23;;;1.97;;
1935;SDS011;969;49.892;10.896;2022-09-01T01:45:12;2.23;;;2.03;;
1935;SDS011;969;49.892;10.896;2022-09-01T01:47:58;2.37;;;2.17;;
1935;SDS011;969;49.892;10.896;2022-09-01T01:50:40;2.03;;;1.83;;
1935;SDS011;969;49.892;10.896;2022-09-01T01:53:22;2.40;;;1.90;;
1935;SDS011;969;49.892;10.896;2022-09-01T01:56:16;2.13;;;1.90;;
1935;SDS011;969;49.892;10.896;2022-09-01T01:59:07;3.20;;;2.13;;
1935;SDS011;969;49.892;10.896;2022-09-01T02:01:52;2.30;;;2.10;;
1935;SDS011;969;49.892;10.896;2022-09-01T02:04:44;3.30;;;2.47;;
1935;SDS011;969;49.892;10.896;2022-09-01T02:11:05;1.93;;;1.80;;
1935;SDS011;969;49.892;10.896;2022-09-01T02:13:34;2.17;;;1.97;;
1935;SDS011;969;49.892;10.896;2022-09-01T02:16:10;2.20;;;2.00;;
1935;SDS011;969;49.892;10.896;2022-09-01T02:18:46;3.17;;;2.37;;
1935;SDS011;969;49.892;10.896;2022-09-01T02:21:20;2.00;;;1.90;;
1935;SDS011;969;49.892;10.896;2022-09-01T02:27:48;2.93;;;1.90;;
1935;SDS011;969;49.892;10.896;2022-09-01T02:30:33;1.90;;;1.80;;
1935;SDS011;969;49.892;10.896;2022-09-01T02:33:28;2.53;;;2.20;;
1935;SDS011;969;49.892;10.896;2022-09-01T02:36:11;2.20;;;1.87;;
1935;SDS011;969;49.892;10.896;2022-09-01T02:38:48;2.70;;;2.50;;
1935;SDS011;969;49.892;10.896;2022-09-01T02:41:45;2.13;;;1.93;;
1935;SDS011;969;49.892;10.896;2022-09-01T02:44:30;2.27;;;2.07;;
1935;SDS011;969;49.892;10.896;2022-09-01T02:47:07;2.20;;;2.00;;
1935;SDS011;969;49.892;10.896;2022-09-01T02:53:04;2.50;;;2.30;;
1935;SDS011;969;49.892;10.896;2022-09-01T02:55:42;2.13;;;1.97;;
1935;SDS011;969;49.892;10.896;2022-09-01T02:58:11;2.60;;;2.03;;
1935;SDS011;969;49.892;10.896;2022-09-01T03:00:54;2.20;;;2.00;;
1935;SDS011;969;49.892;10.896;2022-09-01T03:04:01;3.40;;;2.57;;
1935;SDS011;969;49.892;10.896;2022-09-01T03:06:33;1.90;;;1.80;;
1935;SDS011;969;49.892;10.896;2022-09-01T03:09:03;2.10;;;1.90;;
1935;SDS011;969;49.892;10.896;2022-09-01T03:11:41;2.97;;;1.90;;
1935;SDS011;969;49.892;10.896;2022-09-01T03:14:18;3.80;;;2.10;;
1935;SDS011;969;49.892;10.896;2022-09-01T03:16:54;2.90;;;2.37;;
1935;SDS011;969;49.892;10.896;2022-09-01T03:19:24;2.20;;;2.00;;
1935;SDS011;969;49.892;10.896;2022-09-01T03:22:08;2.00;;;1.80;;
1935;SDS011;969;49.892;10.896;2022-09-01T03:24:35;3.03;;;2.37;;
1935;SDS011;969;49.892;10.896;2022-09-01T03:27:05;2.20;;;2.00;;
1935;SDS011;969;49.892;10.896;2022-09-01T03:29:33;2.80;;;2.27;;
1935;SDS011;969;49.892;10.896;2022-09-01T03:32:00;2.77;;;2.30;;
1935;SDS011;969;49.892;10.896;2022-09-01T03:34:37;2.10;;;2.00;;
1935;SDS011;969;49.892;10.896;2022-09-01T03:37:12;2.80;;;2.60;;
1935;SDS011;969;49.892;10.896;2022-09-01T03:53:24;3.13;;;2.00;;
1935;SDS011;969;49.892;10.896;2022-09-01T03:55:51;2.47;;;2.00;;
1935;SDS011;969;49.892;10.896;2022-09-01T03:58:25;2.23;;;2.03;;
1935;SDS011;969;49.892;10.896;2022-09-01T04:01:00;2.30;;;2.10;;
1935;SDS011;969;49.892;10.896;2022-09-01T04:03:34;2.47;;;2.17;;
1935;SDS011;969;49.892;10.896;2022-09-01T04:06:08;4.83;;;2.10;;
1935;SDS011;969;49.892;10.896;2022-09-01T04:08:57;2.40;;;2.20;;
1935;SDS011;969;49.892;10.896;2022-09-01T04:11:31;2.50;;;2.30;;
1935;SDS011;969;49.892;10.896;2022-09-01T04:14:00;2.50;;;1.97;;
1935;SDS011;969;49.892;10.896;2022-09-01T04:16:33;2.50;;;2.30;;
1935;SDS011;969;49.892;10.896;2022-09-01T04:19:19;2.10;;;1.97;;
1935;SDS011;969;49.892;10.896;2022-09-01T04:22:16;2.50;;;2.30;;
1935;SDS011;969;49.892;10.896;2022-09-01T04:24:50;2.50;;;2.30;;
1935;SDS011;969;49.892;10.896;2022-09-01T04:27:24;2.57;;;2.37;;
1935;SDS011;969;49.892;10.896;2022-09-01T04:30:06;2.30;;;2.10;;
1935;SDS011;969;49.892;10.896;2022-09-01T04:32:42;2.40;;;2.20;;
1935;SDS011;969;49.892;10.896;2022-09-01T04:39:08;2.50;;;2.30;;
1935;SDS011;969;49.892;10.896;2022-09-01T04:44:57;2.73;;;2.50;;
1935;SDS011;969;49.892;10.896;2022-09-01T04:47:25;2.87;;;2.57;;
1935;SDS011;969;49.892;10.896;2022-09-01T04:49:57;2.67;;;2.47;;
1935;SDS011;969;49.892;10.896;2022-09-01T04:52:28;3.10;;;2.80;;
1935;SDS011;969;49.892;10.896;2022-09-01T04:55:06;2.67;;;2.20;;
1935;SDS011;969;49.892;10.896;2022-09-01T04:57:56;2.23;;;1.93;;
1935;SDS011;969;49.892;10.896;2022-09-01T05:00:29;2.40;;;2.20;;
1935;SDS011;969;49.892;10.896;2022-09-01T05:03:00;2.20;;;2.00;;
1935;SDS011;969;49.892;10.896;2022-09-01T05:05:48;2.30;;;2.10;;
1935;SDS011;969;49.892;10.896;2022-09-01T05:08:35;2.20;;;2.00;;
1935;SDS011;969;49.892;10.896;2022-09-01T05:11:06;2.57;;;2.37;;
1935;SDS011;969;49.892;10.896;2022-09-01T05:13:35;2.30;;;2.10;;
1935;SDS011;969;49.892;10.896;2022-09-01T05:16:08;3.07;;;2.77;;
1935;SDS011;969;49.892;10.896;2022-09-01T05:18:40;2.60;;;2.40;;
1935;SDS011;969;49.892;10.896;2022-09-01T05:21:14;2.40;;;2.20;;
1935;SDS011;969;49.892;10.896;2022-09-01T05:23:50;2.20;;;2.00;;
1935;SDS011;969;49.892;10.896;2022-09-01T05:26:36;4.83;;;2.40;;
1935;SDS011;969;49.892;10.896;2022-09-01T05:29:21;2.87;;;2.67;;
1935;SDS011;969;49.892;10.896;2022-09-01T05:31:49;2.67;;;2.47;;
1935;SDS011;969;49.892;10.896;2022-09-01T05:34:20;3.40;;;2.80;;
1935;SDS011;969;49.892;10.896;2022-09-01T05:40:31;3.23;;;2.50;;
1935;SDS011;969;49.892;10.896;2022-09-01T05:43:10;2.97;;;2.10;;
1935;SDS011;969;49.892;10.896;2022-09-01T05:45:55;3.83;;;2.20;;
1935;SDS011;969;49.892;10.896;2022-09-01T05:48:26;3.73;;;2.70;;
1935;SDS011;969;49.892;10.896;2022-09-01T05:51:06;4.10;;;2.93;;
1935;SDS011;969;49.892;10.896;2022-09-01T05:53:45;2.90;;;2.60;;
1935;SDS011;969;49.892;10.896;2022-09-01T05:56:23;3.53;;;2.53;;
1935;SDS011;969;49.892;10.896;2022-09-01T05:59:03;3.07;;;2.83;;
1935;SDS011;969;49.892;10.896;2022-09-01T06:01:35;2.83;;;2.50;;
1935;SDS011;969;49.892;10.896;2022-09-01T06:04:14;2.83;;;2.63;;
1935;SDS011;969;49.892;10.896;2022-09-01T06:06:45;3.43;;;2.60;;
1935;SDS011;969;49.892;10.896;2022-09-01T06:09:16;2.90;;;2.40;;
1935;SDS011;969;49.892;10.896;2022-09-01T06:11:47;6.27;;;2.93;;
1935;SDS011;969;49.892;10.896;2022-09-01T06:14:17;2.70;;;2.40;;
1935;SDS011;969;49.892;10.896;2022-09-01T06:16:52;5.20;;;2.50;;
1935;SDS011;969;49.892;10.896;2022-09-01T06:19:22;2.97;;;2.67;;
1935;SDS011;969;49.892;10.896;2022-09-01T06:21:53;3.30;;;2.77;;
1935;SDS011;969;49.892;10.896;2022-09-01T06:24:37;3.10;;;2.70;;
1935;SDS011;969;49.892;10.896;2022-09-01T06:27:12;2.40;;;2.20;;
1935;SDS011;969;49.892;10.896;2022-09-01T06:29:44;3.30;;;2.50;;
1935;SDS011;969;49.892;10.896;2022-09-01T06:32:20;2.63;;;2.43;;
1935;SDS011;969;49.892;10.896;2022-09-01T06:34:49;3.10;;;2.53;;
1935;SDS011;969;49.892;10.896;2022-09-01T06:37:19;2.80;;;2.60;;
1935;SDS011;969;49.892;10.896;2022-09-01T06:39:46;2.40;;;2.20;;
1935;SDS011;969;49.892;10.896;2022-09-01T06:42:18;3.10;;;2.30;;
1935;SDS011;969;49.892;10.896;2022-09-01T06:44:52;3.03;;;2.83;;
1935;SDS011;969;49.892;10.896;2022-09-01T06:47:37;3.10;;;2.63;;
1935;SDS011;969;49.892;10.896;2022-09-01T06:50:14;4.93;;;2.23;;
1935;SDS011;969;49.892;10.896;2022-09-01T06:52:43;2.50;;;2.10;;
1935;SDS011;969;49.892;10.896;2022-09-01T06:55:11;3.80;;;2.40;;
1935;SDS011;969;49.892;10.896;2022-09-01T06:57:39;3.00;;;2.80;;
1935;SDS011;969;49.892;10.896;2022-09-01T07:00:19;2.97;;;2.43;;
1935;SDS011;969;49.892;10.896;2022-09-01T07:02:56;2.37;;;2.13;;
1935;SDS011;969;49.892;10.896;2022-09-01T07:05:43;2.70;;;2.40;;
1935;SDS011;969;49.892;10.896;2022-09-01T07:08:24;2.53;;;2.33;;
1935;SDS011;969;49.892;10.896;2022-09-01T07:14:24;4.23;;;2.90;;
1935;SDS011;969;49.892;10.896;2022-09-01T07:16:55;3.50;;;2.60;;
1935;SDS011;969;49.892;10.896;2022-09-01T07:22:48;2.37;;;2.17;;
1935;SDS011;969;49.892;10.896;2022-09-01T07:26:04;2.40;;;2.20;;
1935;SDS011;969;49.892;10.896;2022-09-01T07:28:41;2.23;;;2.03;;
1935;SDS011;969;49.892;10.896;2022-09-01T07:31:29;4.00;;;2.37;;
1935;SDS011;969;49.892;10.896;2022-09-01T07:34:15;2.43;;;2.23;;
1935;SDS011;969;49.892;10.896;2022-09-01T07:36:51;2.43;;;2.23;;
1935;SDS011;969;49.892;10.896;2022-09-01T07:39:47;2.03;;;1.83;;
1935;SDS011;969;49.892;10.896;2022-09-01T07:42:25;2.40;;;2.00;;
1935;SDS011;969;49.892;10.896;2022-09-01T07:44:55;3.63;;;2.40;;
1935;SDS011;969;49.892;10.896;2022-09-01T07:47:28;3.33;;;2.20;;
1935;SDS011;969;49.892;10.896;2022-09-01T07:50:05;2.60;;;2.40;;
1935;SDS011;969;49.892;10.896;2022-09-01T07:52:44;2.13;;;1.93;;
1935;SDS011;969;49.892;10.896;2022-09-01T07:55:19;2.47;;;1.93;;
1935;SDS011;969;49.892;10.896;2022-09-01T07:57:53;2.80;;;1.93;;
1935;SDS011;969;49.892;10.896;2022-09-01T08:00:26;2.83;;;2.40;;
1935;SDS011;969;49.892;10.896;2022-09-01T08:03:13;2.03;;;1.90;;
1935;SDS011;969;49.892;10.896;2022-09-01T08:15:24;2.17;;;1.97;;
1935;SDS011;969;49.892;10.896;2022-09-01T08:18:35;2.33;;;2.13;;
1935;SDS011;969;49.892;10.896;2022-09-01T08:24:43;2.20;;;2.00;;
1935;SDS011;969;49.892;10.896;2022-09-01T08:30:34;2.53;;;1.90;;
1935;SDS011;969;49.892;10.896;2022-09-01T08:37:30;2.13;;;1.90;;
1935;SDS011;969;49.892;10.896;2022-09-01T08:40:06;3.13;;;1.90;;
1935;SDS011;969;49.892;10.896;2022-09-01T08:46:23;4.00;;;2.00;;
1935;SDS011;969;49.892;10.896;2022-09-01T08:49:19;3.13;;;1.87;;
1935;SDS011;969;49.892;10.896;2022-09-01T08:54:53;2.10;;;1.80;;
1935;SDS011;969;49.892;10.896;2022-09-01T08:57:35;1.80;;;1.70;;
1935;SDS011;969;49.892;10.896;2022-09-01T09:00:11;1.80;;;1.60;;
1935;SDS011;969;49.892;10.896;2022-09-01T09:05:34;5.60;;;2.10;;
1935;SDS011;969;49.892;10.896;2022-09-01T09:08:59;2.17;;;1.70;;
1935;SDS011;969;49.892;10.896;2022-09-01T09:17:46;1.93;;;1.73;;
1935;SDS011;969;49.892;10.896;2022-09-01T09:20:27;2.43;;;1.73;;
1935;SDS011;969;49.892;10.896;2022-09-01T09:22:54;2.83;;;2.00;;
1935;SDS011;969;49.892;10.896;2022-09-01T09:25:21;3.60;;;1.50;;
1935;SDS011;969;49.892;10.896;2022-09-01T09:28:00;2.63;;;1.80;;
1935;SDS011;969;49.892;10.896;2022-09-01T09:34:00;1.90;;;1.70;;
1935;SDS011;969;49.892;10.896;2022-09-01T09:36:42;1.53;;;1.40;;
1935;SDS011;969;49.892;10.896;2022-09-01T09:39:17;2.53;;;1.70;;
1935;SDS011;969;49.892;10.896;2022-09-01T09:42:04;2.40;;;1.70;;
1935;SDS011;969;49.892;10.896;2022-09-01T09:44:44;3.03;;;1.80;;
1935;SDS011;969;49.892;10.896;2022-09-01T10:00:59;1.80;;;1.50;;
1935;SDS011;969;49.892;10.896;2022-09-01T10:07:47;4.37;;;2.00;;
1935;SDS011;969;49.892;10.896;2022-09-01T10:17:29;2.33;;;2.00;;
1935;SDS011;969;49.892;10.896;2022-09-01T10:33:09;2.40;;;2.20;;
1935;SDS011;969;49.892;10.896;2022-09-01T10:35:55;2.37;;;1.77;;
1935;SDS011;969;49.892;10.896;2022-09-01T10:42:19;1.80;;;1.70;;
1935;SDS011;969;49.892;10.896;2022-09-01T10:48:53;2.10;;;1.90;;
1935;SDS011;969;49.892;10.896;2022-09-01T10:51:56;2.13;;;1.90;;
1935;SDS011;969;49.892;10.896;2022-09-01T11:22:02;1.50;;;1.40;;
1935;SDS011;969;49.892;10.896;2022-09-01T11:31:59;1.67;;;1.57;;
1935;SDS011;969;49.892;10.896;2022-09-01T11:38:13;2.90;;;2.00;;
1935;SDS011;969;49.892;10.896;2022-09-01T12:05:24;2.33;;;1.93;;
1935;SDS011;969;49.892;10.896;2022-09-01T12:08:10;1.97;;;1.77;;
1935;SDS011;969;49.892;10.896;2022-09-01T12:38:50;2.40;;;1.80;;
1935;SDS011;969;49.892;10.896;2022-09-01T12:58:51;3.10;;;1.80;;
1935;SDS011;969;49.892;10.896;2022-09-01T13:24:18;2.10;;;1.80;;
1935;SDS011;969;49.892;10.896;2022-09-01T13:31:26;3.43;;;2.07;;
1935;SDS011;969;49.892;10.896;2022-09-01T13:33:57;2.17;;;1.60;;
1935;SDS011;969;49.892;10.896;2022-09-01T13:39:56;1.77;;;1.67;;
1935;SDS011;969;49.892;10.896;2022-09-01T13:49:20;1.60;;;1.50;;
1935;SDS011;969;49.892;10.896;2022-09-01T13:52:47;2.33;;;1.97;;
1935;SDS011;969;49.892;10.896;2022-09-01T13:56:06;2.70;;;1.80;;
1935;SDS011;969;49.892;10.896;2022-09-01T14:02:36;1.80;;;1.67;;
1935;SDS011;969;49.892;10.896;2022-09-01T14:12:29;1.67;;;1.57;;
1935;SDS011;969;49.892;10.896;2022-09-01T14:19:06;2.13;;;1.77;;
1935;SDS011;969;49.892;10.896;2022-09-01T14:25:40;1.83;;;1.67;;
1935;SDS011;969;49.892;10.896;2022-09-01T14:38:48;3.00;;;1.80;;
1935;SDS011;969;49.892;10.896;2022-09-01T14:41:17;2.43;;;2.23;;
1935;SDS011;969;49.892;10.896;2022-09-01T14:43:50;2.40;;;1.90;;
1935;SDS011;969;49.892;10.896;2022-09-01T14:46:26;2.10;;;1.90;;
1935;SDS011;969;49.892;10.896;2022-09-01T14:48:58;2.60;;;1.80;;
1935;SDS011;969;49.892;10.896;2022-09-01T14:51:26;2.50;;;1.93;;
1935;SDS011;969;49.892;10.896;2022-09-01T14:53:54;2.03;;;1.70;;
1935;SDS011;969;49.892;10.896;2022-09-01T14:56:35;1.80;;;1.63;;
1935;SDS011;969;49.892;10.896;2022-09-01T15:01:55;2.63;;;1.80;;
1935;SDS011;969;49.892;10.896;2022-09-01T15:04:23;3.27;;;2.50;;
1935;SDS011;969;49.892;10.896;2022-09-01T15:07:03;1.83;;;1.60;;
1935;SDS011;969;49.892;10.896;2022-09-01T15:09:47;2.03;;;1.90;;
1935;SDS011;969;49.892;10.896;2022-09-01T15:12:28;1.73;;;1.63;;
1935;SDS011;969;49.892;10.896;2022-09-01T15:14:55;2.00;;;1.53;;
1935;SDS011;969;49.892;10.896;2022-09-01T15:17:23;1.60;;;1.50;;
1935;SDS011;969;49.892;10.896;2022-09-01T15:19:53;2.10;;;1.90;;
1935;SDS011;969;49.892;10.896;2022-09-01T15:22:25;2.23;;;1.83;;
1935;SDS011;969;49.892;10.896;2022-09-01T15:24:55;1.83;;;1.70;;
1935;SDS011;969;49.892;10.896;2022-09-01T15:27:45;2.33;;;1.63;;
1935;SDS011;969;49.892;10.896;2022-09-01T15:30:19;3.17;;;2.50;;
1935;SDS011;969;49.892;10.896;2022-09-01T15:32:48;2.13;;;1.77;;
1935;SDS011;969;49.892;10.896;2022-09-01T15:35:26;1.80;;;1.70;;
1935;SDS011;969;49.892;10.896;2022-09-01T15:37:56;3.50;;;2.17;;
1935;SDS011;969;49.892;10.896;2022-09-01T15:40:25;2.63;;;1.97;;
1935;SDS011;969;49.892;10.896;2022-09-01T15:42:52;3.23;;;1.87;;
1935;SDS011;969;49.892;10.896;2022-09-01T15:45:21;2.10;;;1.90;;
1935;SDS011;969;49.892;10.896;2022-09-01T15:48:01;2.27;;;2.07;;
1935;SDS011;969;49.892;10.896;2022-09-01T15:54:02;2.50;;;1.90;;
1935;SDS011;969;49.892;10.896;2022-09-01T15:56:42;2.90;;;2.07;;
1935;SDS011;969;49.892;10.896;2022-09-01T15:59:13;2.20;;;2.00;;
1935;SDS011;969;49.892;10.896;2022-09-01T16:01:42;2.90;;;1.87;;
1935;SDS011;969;49.892;10.896;2022-09-01T16:04:12;2.23;;;2.03;;
1935;SDS011;969;49.892;10.896;2022-09-01T16:06:41;2.73;;;1.63;;
1935;SDS011;969;49.892;10.896;2022-09-01T16:09:10;1.90;;;1.70;;
1935;SDS011;969;49.892;10.896;2022-09-01T16:11:45;1.70;;;1.60;;
1935;SDS011;969;49.892;10.896;2022-09-01T16:14:14;2.00;;;1.80;;
1935;SDS011;969;49.892;10.896;2022-09-01T16:19:55;1.67;;;1.50;;
1935;SDS011;969;49.892;10.896;2022-09-01T16:22:36;2.30;;;1.90;;
1935;SDS011;969;49.892;10.896;2022-09-01T16:25:22;3.67;;;1.90;;
1935;SDS011;969;49.892;10.896;2022-09-01T16:27:54;1.70;;;1.60;;
1935;SDS011;969;49.892;10.896;2022-09-01T16:30:22;5.10;;;1.97;;
1935;SDS011;969;49.892;10.896;2022-09-01T16:32:51;1.87;;;1.70;;
1935;SDS011;969;49.892;10.896;2022-09-01T16:35:18;2.07;;;1.87;;
1935;SDS011;969;49.892;10.896;2022-09-01T16:40:49;2.10;;;1.80;;
1935;SDS011;969;49.892;10.896;2022-09-01T16:43:56;1.70;;;1.50;;
1935;SDS011;969;49.892;10.896;2022-09-01T16:56:04;3.33;;;1.90;;
1935;SDS011;969;49.892;10.896;2022-09-01T17:01:46;2.30;;;1.97;;
1935;SDS011;969;49.892;10.896;2022-09-01T17:07:28;2.07;;;1.77;;
1935;SDS011;969;49.892;10.896;2022-09-01T17:10:11;1.80;;;1.70;;
1935;SDS011;969;49.892;10.896;2022-09-01T17:12:49;2.57;;;1.60;;
1935;SDS011;969;49.892;10.896;2022-09-01T17:18:59;1.70;;;1.43;;
1935;SDS011;969;49.892;10.896;2022-09-01T17:21:39;1.97;;;1.77;;
1935;SDS011;969;49.892;10.896;2022-09-01T17:29:49;1.73;;;1.60;;
1935;SDS011;969;49.892;10.896;2022-09-01T17:38:29;2.13;;;1.93;;
1935;SDS011;969;49.892;10.896;2022-09-01T17:41:28;1.67;;;1.57;;
1935;SDS011;969;49.892;10.896;2022-09-01T17:53:55;2.10;;;1.90;;
1935;SDS011;969;49.892;10.896;2022-09-01T18:02:22;2.40;;;1.63;;
1935;SDS011;969;49.892;10.896;2022-09-01T18:05:22;2.00;;;1.80;;
1935;SDS011;969;49.892;10.896;2022-09-01T18:10:25;1.90;;;1.70;;
1935;SDS011;969;49.892;10.896;2022-09-01T18:13:19;2.20;;;1.90;;
1935;SDS011;969;49.892;10.896;2022-09-01T18:15:49;1.63;;;1.53;;
1935;SDS011;969;49.892;10.896;2022-09-01T18:18:34;1.30;;;1.20;;
1935;SDS011;969;49.892;10.896;2022-09-01T18:21:06;1.70;;;1.50;;
1935;SDS011;969;49.892;10.896;2022-09-01T18:23:44;1.90;;;1.70;;
1935;SDS011;969;49.892;10.896;2022-09-01T18:26:20;1.60;;;1.30;;
1935;SDS011;969;49.892;10.896;2022-09-01T18:28:53;1.50;;;1.27;;
1935;SDS011;969;49.892;10.896;2022-09-01T18:54:40;2.00;;;1.70;;
1935;SDS011;969;49.892;10.896;2022-09-01T18:57:35;2.27;;;1.63;;
1935;SDS011;969;49.892;10.896;2022-09-01T19:03:40;1.60;;;1.40;;
1935;SDS011;969;49.892;10.896;2022-09-01T19:06:31;2.40;;;1.67;;
1935;SDS011;969;49.892;10.896;2022-09-01T19:09:29;2.30;;;1.90;;
1935;SDS011;969;49.892;10.896;2022-09-01T19:12:10;2.80;;;1.40;;
1935;SDS011;969;49.892;10.896;2022-09-01T19:21:36;1.67;;;1.50;;
1935;SDS011;969;49.892;10.896;2022-09-01T19:24:44;1.60;;;1.50;;
1935;SDS011;969;49.892;10.896;2022-09-01T19:27:16;1.47;;;1.37;;
1935;SDS011;969;49.892;10.896;2022-09-01T19:29:53;1.50;;;1.40;;
1935;SDS011;969;49.892;10.896;2022-09-01T19:32:35;2.13;;;1.50;;
1935;SDS011;969;49.892;10.896;2022-09-01T19:35:08;2.27;;;1.57;;
1935;SDS011;969;49.892;10.896;2022-09-01T19:37:39;2.47;;;2.10;;
1935;SDS011;969;49.892;10.896;2022-09-01T19:40:07;2.40;;;1.50;;
1935;SDS011;969;49.892;10.896;2022-09-01T19:56:13;2.00;;;1.40;;
1935;SDS011;969;49.892;10.896;2022-09-01T19:58:49;1.63;;;1.40;;
1935;SDS011;969;49.892;10.896;2022-09-01T20:04:13;1.63;;;1.53;;
1935;SDS011;969;49.892;10.896;2022-09-01T20:06:42;1.50;;;1.30;;
1935;SDS011;969;49.892;10.896;2022-09-01T20:13:25;2.80;;;1.50;;
1935;SDS011;969;49.892;10.896;2022-09-01T20:16:33;1.33;;;1.13;;
1935;SDS011;969;49.892;10.896;2022-09-01T20:19:29;1.63;;;1.50;;
1935;SDS011;969;49.892;10.896;2022-09-01T20:25:00;1.80;;;1.50;;
1935;SDS011;969;49.892;10.896;2022-09-01T20:31:17;1.70;;;1.27;;
1935;SDS011;969;49.892;10.896;2022-09-01T20:33:54;2.00;;;1.43;;
1935;SDS011;969;49.892;10.896;2022-09-01T20:49:13;1.70;;;1.40;;
1935;SDS011;969;49.892;10.896;2022-09-01T21:10:33;1.50;;;1.40;;
1935;SDS011;969;49.892;10.896;2022-09-01T21:16:43;1.70;;;1.60;;
1935;SDS011;969;49.892;10.896;2022-09-01T21:22:17;2.60;;;1.50;;
1935;SDS011;969;49.892;10.896;2022-09-01T21:27:47;2.03;;;1.83;;
1935;SDS011;969;49.892;10.896;2022-09-01T21:30:21;1.57;;;1.47;;
1935;SDS011;969;49.892;10.896;2022-09-01T21:32:56;1.60;;;1.50;;
1935;SDS011;969;49.892;10.896;2022-09-01T21:35:23;2.07;;;1.60;;
1935;SDS011;969;49.892;10.896;2022-09-01T21:37:49;1.60;;;1.50;;
1935;SDS011;969;49.892;10.896;2022-09-01T21:40:28;3.03;;;2.17;;
1935;SDS011;969;49.892;10.896;2022-09-01T21:43:13;3.83;;;1.63;;
1935;SDS011;969;49.892;10.896;2022-09-01T21:45:53;2.23;;;1.50;;
1935;SDS011;969;49.892;10.896;2022-09-01T21:48:22;2.20;;;1.80;;
1935;SDS011;969;49.892;10.896;2022-09-01T21:50:58;1.70;;;1.50;;
1935;SDS011;969;49.892;10.896;2022-09-01T21:53:35;2.37;;;1.77;;
1935;SDS011;969;49.892;10.896;2022-09-01T21:56:01;1.50;;;1.40;;
1935;SDS011;969;49.892;10.896;2022-09-01T21:58:37;1.67;;;1.47;;
1935;SDS011;969;49.892;10.896;2022-09-01T22:01:03;1.53;;;1.40;;
1935;SDS011;969;49.892;10.896;2022-09-01T22:03:34;1.77;;;1.53;;
1935;SDS011;969;49.892;10.896;2022-09-01T22:06:00;1.40;;;1.20;;
1935;SDS011;969;49.892;10.896;2022-09-01T22:11:49;1.73;;;1.43;;
1935;SDS011;969;49.892;10.896;2022-09-01T22:14:16;2.10;;;1.50;;
1935;SDS011;969;49.892;10.896;2022-09-01T22:16:43;2.10;;;1.60;;
1935;SDS011;969;49.892;10.896;2022-09-01T22:19:10;2.00;;;1.50;;
1935;SDS011;969;49.892;10.896;2022-09-01T22:21:36;1.70;;;1.40;;
1935;SDS011;969;49.892;10.896;2022-09-01T22:24:03;1.67;;;1.43;;
1935;SDS011;969;49.892;10.896;2022-09-01T22:26:30;1.90;;;1.50;;
1935;SDS011;969;49.892;10.896;2022-09-01T22:29:00;4.23;;;2.13;;
1935;SDS011;969;49.892;10.896;2022-09-01T22:31:29;1.67;;;1.37;;
1935;SDS011;969;49.892;10.896;2022-09-01T22:33:59;3.00;;;1.70;;
1935;SDS011;969;49.892;10.896;2022-09-01T22:36:33;1.63;;;1.53;;
1935;SDS011;969;49.892;10.896;2022-09-01T22:39:06;1.73;;;1.47;;
1935;SDS011;969;49.892;10.896;2022-09-01T22:41:34;2.60;;;1.60;;
1935;SDS011;969;49.892;10.896;2022-09-01T22:44:04;2.00;;;1.53;;
1935;SDS011;969;49.892;10.896;2022-09-01T22:46:32;1.60;;;1.27;;
1935;SDS011;969;49.892;10.896;2022-09-01T22:48:59;1.40;;;1.30;;
1935;SDS011;969;49.892;10.896;2022-09-01T22:51:26;1.43;;;1.13;;
1935;SDS011;969;49.892;10.896;2022-09-01T22:53:53;1.40;;;1.20;;
1935;SDS011;969;49.892;10.896;2022-09-01T22:56:23;2.93;;;1.70;;
1935;SDS011;969;49.892;10.896;2022-09-01T22:58:52;2.53;;;1.43;;
1935;SDS011;969;49.892;10.896;2022-09-01T23:01:20;2.00;;;1.83;;
1935;SDS011;969;49.892;10.896;2022-09-01T23:03:48;1.27;;;1.17;;
1935;SDS011;969;49.892;10.896;2022-09-01T23:06:19;2.10;;;1.20;;
1935;SDS011;969;49.892;10.896;2022-09-01T23:08:48;3.63;;;1.53;;
1935;SDS011;969;49.892;10.896;2022-09-01T23:11:14;1.33;;;1.20;;
1935;SDS011;969;49.892;10.896;2022-09-01T23:13:40;1.70;;;1.60;;
1935;SDS011;969;49.892;10.896;2022-09-01T23:16:07;2.00;;;1.80;;
1935;SDS011;969;49.892;10.896;2022-09-01T23:18:35;2.80;;;1.10;;
1935;SDS011;969;49.892;10.896;2022-09-01T23:21:03;1.97;;;1.20;;
1935;SDS011;969;49.892;10.896;2022-09-01T23:23:30;1.23;;;1.10;;
1935;SDS011;969;49.892;10.896;2022-09-01T23:25:58;2.20;;;1.70;;
1935;SDS011;969;49.892;10.896;2022-09-01T23:28:25;2.93;;;1.50;;
1935;SDS011;969;49.892;10.896;2022-09-01T23:30:52;1.70;;;1.53;;
1935;SDS011;969;49.892;10.896;2022-09-01T23:33:19;2.00;;;1.43;;
1935;SDS011;969;49.892;10.896;2022-09-01T23:35:48;1.83;;;1.47;;
1935;SDS011;969;49.892;10.896;2022-09-01T23:38:17;1.60;;;1.27;;
1935;SDS011;969;49.892;10.896;2022-09-01T23:40:46;1.53;;;1.27;;
1935;SDS011;969;49.892;10.896;2022-09-01T23:43:15;1.43;;;1.33;;
1935;SDS011;969;49.892;10.896;2022-09-01T23:45:43;1.70;;;1.30;;
1935;SDS011;969;49.892;10.896;2022-09-01T23:48:10;1.97;;;1.40;;
1935;SDS011;969;49.892;10.896;2022-09-01T23:50:41;2.87;;;1.43;;
1935;SDS011;969;49.892;10.896;2022-09-01T23:53:09;2.17;;;1.63;;
1935;SDS011;969;49.892;10.896;2022-09-01T23:55:43;1.57;;;1.47;;
1935;SDS011;969;49.892;10.896;2022-09-01T23:58:10;1.47;;;1.20;;
